Airfield :
LOGIN :

Register | Disclaimer

   EN    FR    IT 

 










Legend :    VFR   Marginal VFR   IFR   Intensive IFR   Very Intensive IFR
Visi :
Ceiling :
>= 8 km
>= 3000ft
5 to 8 km
1000 to 3000 ft
1500m to 5 km
500 to 1000 ft
800 to 1500m
200 to 500 ft
< 800m
< 200 ft
Symbols :   Thunderstorms  Fog  Heavy snow  Heavy precipitations  Wind > 20 kt
SIGMETs :     Misc.  Thunderstorms  Icing  Turbulence  Mountain Waves  Volcanic Ashes







- Airport Elevation : 84 ft
- Download approach charts


LFBC - Cazaux

CURRENT METAR :
  • 112100Z AUTO 32002KT CAVOK 02/01 Q1021 NOSIG

EXPIRED METARs :
  • 112030Z AUTO 00000KT CAVOK 03/02 Q1021 BECMG 09010KT
  • 112000Z AUTO 07003KT CAVOK 04/03 Q1021 NOSIG
  • 111930Z AUTO 00000KT CAVOK 03/02 Q1021 BECMG 09010KT
  • 111900Z AUTO 07004KT CAVOK 04/02 Q1020 NOSIG
  • 111830Z AUTO 06005KT CAVOK 05/02 Q1021 NOSIG

TAF TAF LFBC
Valid from the 11 at 21:00 until the 12 at 21:00 UTC


112000Z 1121/1221 VRB02KT CAVOK
BECMG 1202/1203 RA
TEMPO 1204/1206 BKN007
BECMG 1205/1206 NSW
TEMPO 1208/1214 4000 SHRA
No reported NOTAMs for that airfield.



MET'MAP, your aeronautical weather chart ! - Copyright ORBIFLY December 2007 - Disclaimer

ORBIFLY MET'MAP TEAM :

Programming & Development : Alexandra Zaïnal
Concept & Development : Baudouin d'Aumeries
Co-Development & Prog : Marc-Olivier Méhu
Technical & hardware support : Manuel Goepfert

Contact : metmap@orbifly.com




SOURCES & CREDITS :

   NOAA